Terminal Aerodrome Forecast
Issued by NWS Louisville, KY

Home | Current Version | Previous Version | Text Only | Print | Product List | Glossary On
Versions: 1 2 3 4 5 6 7 8 9 10 11 12 13 14 15 16 17 18
000
FTUS43 KLMK 010500
TAFBWG
TAF
KBWG 010523Z 0106/0206 22004KT P6SM FEW250
     FM011000 VRB03KT 6SM BR SCT250
     FM011300 24005KT P6SM BKN150
     FM011500 25007KT P6SM VCTS BKN040CB=

USA.gov is the U.S. government's official web portal to all federal, state and local government web resources and services.